KMEM/MEM METAR and TAF weather

Enter ICAO airport designator
Station Type Date Time Source
KMEM METAR 2020/05/29 19:54 UTC NOAA

KMEM 291954Z 31011KT 10SM SCT040 BKN065 28/17 A3003 RMK AO2 SLP166 T02780172


Station Type Date Time Source
KMEM Decoded METAR 2020/05/29 19:54 UTC NOAA

MEMPHIS INTERNATIONAL AIRPORT , TN, United States (KMEM) 35-02N 089-59W 86M
May 29, 2020 - 03:54 PM EDT / 2020.05.29 1954 UTC
Wind: from the NW (310 degrees) at 13 MPH (11 KT):0
Visibility: 10 mile(s):0
Sky conditions: mostly cloudy
Temperature: 82.0 F (27.8 C)
Dew Point: 63.0 F (17.2 C)
Relative Humidity: 52%
Pressure (altimeter): 30.03 in. Hg (1016 hPa)
ob: KMEM 291954Z 31011KT 10SM SCT040 BKN065 28/17 A3003 RMK AO2 SLP166 T02780172
cycle: 20

Station Type Date Time Source
KMEM TAF 2020/05/29 18:33 UTC NOAA

TAF KMEM 291731Z 2918/3024 33010KT P6SM BKN025
FM291900 34010G17KT P6SM BKN035
FM292100 35009KT P6SM SCT045
FM300200 02005KT P6SM SKC
FM301500 01008KT P6SM FEW250

Example: see airport list